Time,TemperatureF,DewpointF,PressureIn,WindDirection,WindDirectionDegrees,WindSpeedMPH,WindSpeedGustMPH,Humidity,HourlyPrecipIn,Conditions,Clouds,dailyrainin,SoftwareType,DateUTC
2013-02-14 00:05:00,27.6,23.0,29.64,North,1,0.0,0.0,83,0.00,,,0.00,vanprod,2013-02-14 05:05:00,
2013-02-14 00:15:00,27.6,23.0,29.64,North,1,0.0,0.0,83,0.00,,,0.00,vanprod,2013-02-14 05:15:00,
2013-02-14 00:25:00,27.6,23.0,29.64,North,1,0.0,0.0,83,0.00,,,0.00,vanprod,2013-02-14 05:25:00,
2013-02-14 00:35:00,27.6,23.0,29.62,North,1,0.0,0.0,82,0.00,,,0.00,vanprod,2013-02-14 05:35:00,
2013-02-14 00:45:00,27.9,23.0,29.64,North,0,0.0,0.0,83,0.00,,,0.00,vanprod,2013-02-14 05:45:00,
2013-02-14 00:55:00,28.2,23.0,29.64,North,1,0.0,1.0,82,0.00,,,0.00,vanprod,2013-02-14 05:55:00,
2013-02-14 01:05:00,28.4,23.0,29.67,North,1,0.0,0.0,81,0.00,,,0.00,vanprod,2013-02-14 06:05:00,
2013-02-14 01:15:00,28.4,24.0,29.67,North,1,0.0,0.0,82,0.00,,,0.00,vanprod,2013-02-14 06:15:00,
2013-02-14 01:25:00,28.4,24.0,29.67,North,1,0.0,0.0,82,0.00,,,0.00,vanprod,2013-02-14 06:25:00,
2013-02-14 01:35:00,28.4,24.0,29.68,North,0,0.0,0.0,84,0.00,,,0.00,vanprod,2013-02-14 06:35:00,
2013-02-14 01:45:00,28.2,24.0,29.67,North,1,0.0,0.0,83,0.00,,,0.00,vanprod,2013-02-14 06:45:00,
2013-02-14 01:55:00,28.2,23.0,29.67,North,1,0.0,0.0,81,0.00,,,0.00,vanprod,2013-02-14 06:55:00,
2013-02-14 02:05:00,28.4,24.0,29.67,North,1,0.0,0.0,82,0.00,,,0.00,vanprod,2013-02-14 07:05:00,
2013-02-14 02:15:00,28.4,23.0,29.66,North,0,0.0,0.0,80,0.00,,,0.00,vanprod,2013-02-14 07:15:00,
2013-02-14 02:25:00,28.5,23.0,29.66,North,1,0.0,0.0,80,0.00,,,0.00,vanprod,2013-02-14 07:25:00,
2013-02-14 02:35:00,28.7,23.0,29.65,North,1,0.0,0.0,79,0.00,,,0.00,vanprod,2013-02-14 07:35:00,
2013-02-14 02:45:00,28.8,23.0,29.66,North,1,0.0,0.0,79,0.00,,,0.00,vanprod,2013-02-14 07:45:00,
2013-02-14 02:55:00,28.8,23.0,29.66,North,1,0.0,0.0,77,0.00,,,0.00,vanprod,2013-02-14 07:55:00,
2013-02-14 03:05:00,28.8,23.0,29.66,North,1,0.0,0.0,80,0.00,,,0.00,vanprod,2013-02-14 08:05:00,
2013-02-14 03:15:00,28.8,23.0,29.67,North,1,0.0,0.0,80,0.00,,,0.00,vanprod,2013-02-14 08:15:00,
2013-02-14 03:25:00,28.7,22.0,29.67,North,1,0.0,0.0,77,0.00,,,0.00,vanprod,2013-02-14 08:25:00,
2013-02-14 03:35:00,28.7,23.0,29.68,North,0,0.0,0.0,80,0.00,,,0.00,vanprod,2013-02-14 08:35:00,
2013-02-14 03:45:00,28.7,24.0,29.68,North,1,0.0,0.0,82,0.00,,,0.00,vanprod,2013-02-14 08:45:00,
2013-02-14 03:55:00,28.7,24.0,29.68,North,1,0.0,1.0,81,0.00,,,0.00,vanprod,2013-02-14 08:55:00,
2013-02-14 04:05:00,29.0,24.0,29.68,North,1,0.0,0.0,81,0.00,,,0.00,vanprod,2013-02-14 09:05:00,
2013-02-14 04:15:00,29.0,24.0,29.69,North,1,0.0,0.0,80,0.00,,,0.00,vanprod,2013-02-14 09:15:00,
2013-02-14 04:25:00,29.1,23.0,29.69,North,1,0.0,0.0,79,0.00,,,0.00,vanprod,2013-02-14 09:25:00,
2013-02-14 04:35:00,29.1,23.0,29.70,North,1,0.0,0.0,78,0.00,,,0.00,vanprod,2013-02-14 09:35:00,
2013-02-14 04:45:00,29.3,23.0,29.70,North,1,0.0,1.0,78,0.00,,,0.00,vanprod,2013-02-14 09:45:00,
2013-02-14 04:55:00,29.4,24.0,29.70,North,1,0.0,0.0,80,0.00,,,0.00,vanprod,2013-02-14 09:55:00,
2013-02-14 05:05:00,29.4,23.0,29.70,North,11,1.0,1.0,78,0.00,,,0.00,vanprod,2013-02-14 10:05:00,
2013-02-14 05:15:00,29.5,24.0,29.70,North,11,0.0,0.0,79,0.00,,,0.00,vanprod,2013-02-14 10:15:00,
2013-02-14 05:25:00,29.4,23.0,29.70,North,10,0.0,0.0,78,0.00,,,0.00,vanprod,2013-02-14 10:25:00,
2013-02-14 05:35:00,29.4,24.0,29.70,North,10,0.0,0.0,80,0.00,,,0.00,vanprod,2013-02-14 10:35:00,
2013-02-14 05:45:00,29.3,23.0,29.70,North,11,0.0,0.0,78,0.00,,,0.00,vanprod,2013-02-14 10:45:00,
2013-02-14 05:55:00,29.0,23.0,29.70,North,10,0.0,0.0,78,0.00,,,0.00,vanprod,2013-02-14 10:55:00,
2013-02-14 06:05:00,28.7,23.0,29.70,North,8,0.0,0.0,79,0.00,,,0.00,vanprod,2013-02-14 11:05:00,
2013-02-14 06:15:00,28.2,22.0,29.71,North,10,0.0,0.0,78,0.00,,,0.00,vanprod,2013-02-14 11:15:00,
2013-02-14 06:25:00,27.8,22.0,29.71,North,8,0.0,0.0,78,0.00,,,0.00,vanprod,2013-02-14 11:25:00,
2013-02-14 06:35:00,27.3,22.0,29.72,North,10,0.0,0.0,79,0.00,,,0.00,vanprod,2013-02-14 11:35:00,
2013-02-14 06:45:00,26.9,21.0,29.73,North,10,0.0,0.0,79,0.00,,,0.00,vanprod,2013-02-14 11:45:00,
2013-02-14 06:55:00,26.4,21.0,29.73,North,10,0.0,0.0,80,0.00,,,0.00,vanprod,2013-02-14 11:55:00,
2013-02-14 07:05:00,26.1,21.0,29.73,North,10,0.0,0.0,80,0.00,,,0.00,vanprod,2013-02-14 12:05:00,
2013-02-14 07:15:00,26.0,21.0,29.73,North,8,0.0,0.0,81,0.00,,,0.00,vanprod,2013-02-14 12:15:00,
2013-02-14 07:25:00,26.0,21.0,29.73,North,10,0.0,0.0,80,0.00,,,0.00,vanprod,2013-02-14 12:25:00,
2013-02-14 07:35:00,26.0,21.0,29.75,North,8,0.0,0.0,81,0.00,,,0.00,vanprod,2013-02-14 12:35:00,
2013-02-14 07:45:00,26.0,21.0,29.76,North,10,0.0,0.0,80,0.00,,,0.00,vanprod,2013-02-14 12:45:00,
2013-02-14 07:55:00,26.1,21.0,29.76,North,10,0.0,0.0,80,0.00,,,0.00,vanprod,2013-02-14 12:55:00,
2013-02-14 08:05:00,26.4,21.0,29.76,North,8,0.0,0.0,80,0.00,,,0.00,vanprod,2013-02-14 13:05:00,
2013-02-14 08:15:00,27.2,21.0,29.76,North,4,0.0,1.0,78,0.00,,,0.00,vanprod,2013-02-14 13:15:00,
2013-02-14 08:25:00,28.4,22.0,29.76,SW,217,1.0,0.0,75,0.00,,,0.00,vanprod,2013-02-14 13:25:00,
2013-02-14 08:35:00,29.3,22.0,29.76,North,350,1.0,1.0,73,0.00,,,0.00,vanprod,2013-02-14 13:35:00,
2013-02-14 08:45:00,30.6,22.0,29.77,North,356,1.0,0.0,70,0.00,,,0.00,vanprod,2013-02-14 13:45:00,
2013-02-14 08:55:00,32.1,22.0,29.77,NNW,328,2.0,2.0,66,0.00,,,0.00,vanprod,2013-02-14 13:55:00,
2013-02-14 09:05:00,32.8,22.0,29.77,NW,326,1.0,2.0,64,0.00,,,0.00,vanprod,2013-02-14 14:05:00,
2013-02-14 09:15:00,33.7,22.0,29.78,NW,325,2.0,0.0,62,0.00,,,0.00,vanprod,2013-02-14 14:15:00,
2013-02-14 09:25:00,34.4,22.0,29.78,West,263,1.0,0.0,61,0.00,,,0.00,vanprod,2013-02-14 14:25:00,
2013-02-14 09:35:00,35.0,21.0,29.79,NNW,343,2.0,3.0,57,0.00,,,0.00,vanprod,2013-02-14 14:35:00,
2013-02-14 09:45:00,35.6,21.0,29.79,North,0,2.0,5.0,56,0.00,,,0.00,vanprod,2013-02-14 14:45:00,
2013-02-14 09:55:00,36.2,21.0,29.79,North,0,1.0,3.0,53,0.00,,,0.00,vanprod,2013-02-14 14:55:00,
2013-02-14 10:05:00,37.0,21.0,29.79,NNW,342,1.0,0.0,53,0.00,,,0.00,vanprod,2013-02-14 15:05:00,
2013-02-14 10:15:00,38.0,21.0,29.79,NNW,344,2.0,3.0,50,0.00,,,0.00,vanprod,2013-02-14 15:15:00,
2013-02-14 10:25:00,39.1,21.0,29.79,NW,320,3.0,3.0,48,0.00,,,0.00,vanprod,2013-02-14 15:25:00,
2013-02-14 10:35:00,39.5,25.0,29.79,NW,313,1.0,1.0,55,0.00,,,0.00,vanprod,2013-02-14 15:35:00,
2013-02-14 10:45:00,39.2,22.0,29.79,WNW,292,2.0,3.0,50,0.00,,,0.00,vanprod,2013-02-14 15:45:00,
2013-02-14 10:55:00,39.2,21.0,29.79,NW,326,3.0,0.0,48,0.00,,,0.00,vanprod,2013-02-14 15:55:00,
2013-02-14 11:05:00,39.9,22.0,29.80,NNW,343,3.0,0.0,48,0.00,,,0.00,vanprod,2013-02-14 16:05:00,
2013-02-14 11:15:00,39.8,21.0,29.80,NNW,335,2.0,2.0,47,0.00,,,0.00,vanprod,2013-02-14 16:15:00,
2013-02-14 11:25:00,39.5,22.0,29.80,NE,47,2.0,3.0,50,0.00,,,0.00,vanprod,2013-02-14 16:25:00,
2013-02-14 11:35:00,39.8,22.0,29.81,WNW,284,3.0,0.0,49,0.00,,,0.00,vanprod,2013-02-14 16:35:00,
2013-02-14 11:45:00,39.8,22.0,29.80,NNW,337,2.0,5.0,49,0.00,,,0.00,vanprod,2013-02-14 16:45:00,
2013-02-14 11:55:00,39.5,22.0,29.80,West,278,1.0,1.0,50,0.00,,,0.00,vanprod,2013-02-14 16:55:00,
2013-02-14 12:05:00,38.9,21.0,29.80,SSW,198,1.0,0.0,49,0.00,,,0.01,vanprod,2013-02-14 17:05:00,
2013-02-14 12:15:00,39.1,21.0,29.80,WNW,301,2.0,5.0,49,0.00,,,0.01,vanprod,2013-02-14 17:15:00,
2013-02-14 12:25:00,39.1,23.0,29.80,West,271,2.0,2.0,52,0.00,,,0.01,vanprod,2013-02-14 17:25:00,
2013-02-14 12:35:00,39.2,23.0,29.80,WNW,299,3.0,0.0,51,0.00,,,0.01,vanprod,2013-02-14 17:35:00,
2013-02-14 12:45:00,39.5,22.0,29.80,West,265,1.0,0.0,49,0.00,,,0.01,vanprod,2013-02-14 17:45:00,
2013-02-14 12:55:00,39.5,21.0,29.80,NW,313,2.0,3.0,47,0.00,,,0.01,vanprod,2013-02-14 17:55:00,
2013-02-14 13:05:00,39.5,23.0,29.80,SW,217,3.0,3.0,52,0.00,,,0.01,vanprod,2013-02-14 18:05:00,
2013-02-14 13:15:00,39.6,22.0,29.79,West,264,2.0,0.0,50,0.00,,,0.01,vanprod,2013-02-14 18:15:00,
2013-02-14 13:25:00,39.9,21.0,29.79,WSW,250,1.0,2.0,47,0.00,,,0.01,vanprod,2013-02-14 18:25:00,
2013-02-14 13:35:00,40.1,21.0,29.79,NW,306,2.0,3.0,47,0.00,,,0.01,vanprod,2013-02-14 18:35:00,
2013-02-14 13:45:00,40.2,21.0,29.80,WSW,237,2.0,5.0,47,0.00,,,0.01,vanprod,2013-02-14 18:45:00,
2013-02-14 13:55:00,40.5,24.0,29.80,WNW,284,1.0,4.0,52,0.00,,,0.01,vanprod,2013-02-14 18:55:00,
2013-02-14 14:05:00,40.6,22.0,29.80,WSW,248,2.0,2.0,48,0.00,,,0.01,vanprod,2013-02-14 19:05:00,
2013-02-14 14:15:00,40.6,23.0,29.81,WSW,237,2.0,3.0,50,0.00,,,0.01,vanprod,2013-02-14 19:15:00,
2013-02-14 14:25:00,40.6,23.0,29.81,West,263,2.0,4.0,49,0.00,,,0.01,vanprod,2013-02-14 19:25:00,
2013-02-14 14:35:00,40.8,23.0,29.81,North,4,1.0,0.0,48,0.00,,,0.01,vanprod,2013-02-14 19:35:00,
2013-02-14 14:45:00,40.6,23.0,29.81,West,274,2.0,2.0,50,0.00,,,0.01,vanprod,2013-02-14 19:45:00,
2013-02-14 14:55:00,40.5,21.0,29.81,NE,34,2.0,5.0,46,0.00,,,0.01,vanprod,2013-02-14 19:55:00,
2013-02-14 15:05:00,40.8,22.0,29.80,NE,45,1.0,7.0,47,0.00,,,0.01,vanprod,2013-02-14 20:05:00,
2013-02-14 15:15:00,40.5,24.0,29.81,NNW,337,1.0,2.0,51,0.00,,,0.01,vanprod,2013-02-14 20:15:00,
2013-02-14 15:25:00,40.2,25.0,29.81,WNW,282,1.0,1.0,54,0.00,,,0.01,vanprod,2013-02-14 20:25:00,
2013-02-14 15:35:00,40.1,20.0,29.82,West,278,0.0,1.0,45,0.00,,,0.01,vanprod,2013-02-14 20:35:00,
2013-02-14 15:45:00,40.2,24.0,29.82,WSW,237,0.0,1.0,53,0.00,,,0.01,vanprod,2013-02-14 20:45:00,
2013-02-14 15:55:00,40.3,24.0,29.82,NW,325,1.0,0.0,52,0.00,,,0.01,vanprod,2013-02-14 20:55:00,
2013-02-14 16:05:00,40.2,25.0,29.83,SSW,212,1.0,3.0,54,0.00,,,0.01,vanprod,2013-02-14 21:05:00,
2013-02-14 16:15:00,40.1,24.0,29.83,SSW,213,0.0,0.0,52,0.00,,,0.01,vanprod,2013-02-14 21:15:00,
2013-02-14 16:25:00,39.6,22.0,29.83,SW,215,0.0,2.0,50,0.00,,,0.01,vanprod,2013-02-14 21:25:00,
2013-02-14 16:35:00,39.2,22.0,29.84,SW,215,0.0,0.0,49,0.00,,,0.01,vanprod,2013-02-14 21:35:00,
2013-02-14 16:45:00,38.8,22.0,29.84,SSW,212,0.0,0.0,50,0.00,,,0.01,vanprod,2013-02-14 21:45:00,
2013-02-14 16:55:00,38.3,21.0,29.84,SSW,213,0.0,0.0,50,0.00,,,0.01,vanprod,2013-02-14 21:55:00,
2013-02-14 17:05:00,37.8,22.0,29.84,SW,215,0.0,0.0,52,0.00,,,0.01,vanprod,2013-02-14 22:05:00,
2013-02-14 17:15:00,37.3,21.0,29.85,SSW,213,0.0,0.0,52,0.00,,,0.01,vanprod,2013-02-14 22:15:00,
2013-02-14 17:25:00,36.5,23.0,29.85,SSW,213,0.0,0.0,58,0.00,,,0.01,vanprod,2013-02-14 22:25:00,
2013-02-14 17:35:00,35.5,25.0,29.87,SSW,210,0.0,0.0,64,0.00,,,0.01,vanprod,2013-02-14 22:35:00,
2013-02-14 17:45:00,34.6,23.0,29.87,SW,215,0.0,0.0,61,0.00,,,0.01,vanprod,2013-02-14 22:45:00,
2013-02-14 17:55:00,33.7,24.0,29.87,SSW,213,0.0,1.0,68,0.00,,,0.01,vanprod,2013-02-14 22:55:00,
2013-02-14 18:05:00,33.2,24.0,29.88,SW,215,0.0,0.0,68,0.00,,,0.01,vanprod,2013-02-14 23:05:00,
2013-02-14 18:15:00,32.9,25.0,29.88,SSE,147,1.0,2.0,71,0.00,,,0.01,vanprod,2013-02-14 23:15:00,
2013-02-14 18:25:00,32.8,25.0,29.88,SSE,147,1.0,0.0,73,0.00,,,0.01,vanprod,2013-02-14 23:25:00,
2013-02-14 18:35:00,32.7,25.0,29.89,SE,145,0.0,0.0,74,0.00,,,0.01,vanprod,2013-02-14 23:35:00,
2013-02-14 18:45:00,32.2,25.0,29.89,SSE,147,0.0,0.0,75,0.00,,,0.01,vanprod,2013-02-14 23:45:00,
2013-02-14 18:55:00,31.8,25.0,29.89,SSE,147,0.0,0.0,75,0.00,,,0.01,vanprod,2013-02-14 23:55:00,
2013-02-14 19:05:00,31.3,25.0,29.90,SSE,147,0.0,0.0,76,0.00,,,0.01,vanprod,2013-02-15 00:05:00,
2013-02-14 19:15:00,31.0,25.0,29.90,SSE,147,0.0,0.0,77,0.00,,,0.01,vanprod,2013-02-15 00:15:00,
2013-02-14 19:25:00,30.6,25.0,29.90,SE,145,0.0,0.0,78,0.00,,,0.01,vanprod,2013-02-15 00:25:00,
2013-02-14 19:35:00,30.1,24.0,29.90,SSE,147,0.0,0.0,79,0.00,,,0.01,vanprod,2013-02-15 00:35:00,
2013-02-14 19:45:00,29.8,25.0,29.90,SE,145,0.0,0.0,81,0.00,,,0.01,vanprod,2013-02-15 00:45:00,
2013-02-14 19:55:00,29.4,24.0,29.90,SSE,147,0.0,0.0,80,0.00,,,0.01,vanprod,2013-02-15 00:55:00,
2013-02-14 20:05:00,29.1,24.0,29.90,SE,143,0.0,0.0,81,0.00,,,0.01,vanprod,2013-02-15 01:05:00,
2013-02-14 20:15:00,28.7,24.0,29.90,SSE,147,0.0,0.0,81,0.00,,,0.01,vanprod,2013-02-15 01:15:00,
2013-02-14 20:25:00,28.2,23.0,29.90,SSE,147,0.0,0.0,82,0.00,,,0.01,vanprod,2013-02-15 01:25:00,
2013-02-14 20:35:00,27.9,23.0,29.90,SE,145,0.0,0.0,83,0.00,,,0.01,vanprod,2013-02-15 01:35:00,
2013-02-14 20:45:00,27.6,23.0,29.90,SSE,147,0.0,0.0,84,0.00,,,0.01,vanprod,2013-02-15 01:45:00,
2013-02-14 20:55:00,27.5,23.0,29.90,SSE,147,0.0,0.0,84,0.00,,,0.01,vanprod,2013-02-15 01:55:00,
2013-02-14 21:05:00,27.5,23.0,29.91,SSE,147,0.0,0.0,84,0.00,,,0.01,vanprod,2013-02-15 02:05:00,
2013-02-14 21:15:00,27.3,23.0,29.90,SSE,147,0.0,0.0,83,0.00,,,0.01,vanprod,2013-02-15 02:15:00,
2013-02-14 21:25:00,27.3,23.0,29.90,SSE,147,0.0,0.0,83,0.00,,,0.01,vanprod,2013-02-15 02:25:00,
2013-02-14 21:35:00,27.0,23.0,29.89,SSE,147,0.0,0.0,84,0.00,,,0.01,vanprod,2013-02-15 02:35:00,
2013-02-14 21:45:00,26.9,22.0,29.89,SSE,147,0.0,0.0,83,0.00,,,0.01,vanprod,2013-02-15 02:45:00,
2013-02-14 21:55:00,26.6,22.0,29.89,SSE,152,0.0,0.0,84,0.00,,,0.01,vanprod,2013-02-15 02:55:00,
2013-02-14 22:05:00,26.3,22.0,29.89,SW,226,0.0,0.0,85,0.00,,,0.01,vanprod,2013-02-15 03:05:00,
2013-02-14 22:15:00,26.1,22.0,29.89,SW,226,0.0,0.0,85,0.00,,,0.01,vanprod,2013-02-15 03:15:00,
2013-02-14 22:25:00,26.0,22.0,29.89,SW,226,0.0,0.0,86,0.00,,,0.01,vanprod,2013-02-15 03:25:00,
2013-02-14 22:35:00,26.0,22.0,29.89,SW,226,0.0,0.0,86,0.00,,,0.01,vanprod,2013-02-15 03:35:00,
2013-02-14 22:45:00,26.0,22.0,29.90,SW,224,0.0,0.0,86,0.00,,,0.01,vanprod,2013-02-15 03:45:00,
2013-02-14 22:55:00,26.1,22.0,29.90,SW,226,0.0,0.0,86,0.00,,,0.01,vanprod,2013-02-15 03:55:00,
2013-02-14 23:05:00,26.1,23.0,29.90,SW,226,0.0,0.0,87,0.00,,,0.01,vanprod,2013-02-15 04:05:00,
2013-02-14 23:15:00,26.1,23.0,29.90,SW,224,0.0,0.0,87,0.00,,,0.01,vanprod,2013-02-15 04:15:00,
2013-02-14 23:25:00,26.1,23.0,29.91,SW,224,0.0,0.0,87,0.00,,,0.01,vanprod,2013-02-15 04:25:00,
2013-02-14 23:35:00,26.1,23.0,29.90,SW,227,0.0,0.0,87,0.00,,,0.01,vanprod,2013-02-15 04:35:00,
2013-02-14 23:45:00,26.0,23.0,29.91,SW,226,0.0,0.0,87,0.00,,,0.01,vanprod,2013-02-15 04:45:00,
2013-02-14 23:55:00,26.1,23.0,29.91,SW,224,0.0,0.0,87,0.00,,,0.01,vanprod,2013-02-15 04:55:00,